sensor_id;sensor_type;location;lat;lon;timestamp;pressure;altitude;pressure_sealevel;temperature;humidity
76297;BME280;65104;52.994;6.552;2024-01-06T00:00:42;100363.38;;;1.91;89.13
76297;BME280;65104;52.994;6.552;2024-01-06T00:03:08;100367.63;;;1.86;89.24
76297;BME280;65104;52.994;6.552;2024-01-06T00:05:35;100371.19;;;1.91;89.57
76297;BME280;65104;52.994;6.552;2024-01-06T00:08:02;100361.41;;;1.79;89.33
76297;BME280;65104;52.994;6.552;2024-01-06T00:10:28;100365.03;;;1.86;89.87
76297;BME280;65104;52.994;6.552;2024-01-06T00:12:55;100372.59;;;1.75;89.89
76297;BME280;65104;52.994;6.552;2024-01-06T00:15:24;100368.13;;;1.68;89.66
76297;BME280;65104;52.994;6.552;2024-01-06T00:17:50;100372.41;;;1.64;89.92
76297;BME280;65104;52.994;6.552;2024-01-06T00:20:17;100379.31;;;1.62;90.00
76297;BME280;65104;52.994;6.552;2024-01-06T00:22:43;100382.78;;;1.61;89.82
76297;BME280;65104;52.994;6.552;2024-01-06T00:25:10;100388.72;;;1.54;89.16
76297;BME280;65104;52.994;6.552;2024-01-06T00:27:37;100396.56;;;1.57;89.77
76297;BME280;65104;52.994;6.552;2024-01-06T00:30:05;100396.31;;;1.46;90.10
76297;BME280;65104;52.994;6.552;2024-01-06T00:32:33;100410.97;;;1.40;89.76
76297;BME280;65104;52.994;6.552;2024-01-06T00:34:59;100422.19;;;1.39;90.57
76297;BME280;65104;52.994;6.552;2024-01-06T00:37:26;100418.94;;;1.47;90.05
76297;BME280;65104;52.994;6.552;2024-01-06T00:39:53;100420.72;;;1.50;90.27
76297;BME280;65104;52.994;6.552;2024-01-06T00:42:19;100422.31;;;1.43;90.00
76297;BME280;65104;52.994;6.552;2024-01-06T00:44:46;100430.00;;;1.37;89.84
76297;BME280;65104;52.994;6.552;2024-01-06T00:47:13;100431.59;;;1.32;90.33
76297;BME280;65104;52.994;6.552;2024-01-06T00:49:40;100431.78;;;1.41;90.46
76297;BME280;65104;52.994;6.552;2024-01-06T00:52:07;100435.97;;;1.35;90.74
76297;BME280;65104;52.994;6.552;2024-01-06T00:54:34;100441.41;;;1.44;90.55
76297;BME280;65104;52.994;6.552;2024-01-06T00:57:00;100442.31;;;1.46;90.28
76297;BME280;65104;52.994;6.552;2024-01-06T00:59:27;100451.00;;;1.46;90.25
76297;BME280;65104;52.994;6.552;2024-01-06T01:01:54;100449.97;;;1.38;90.60
76297;BME280;65104;52.994;6.552;2024-01-06T01:04:21;100447.91;;;1.23;90.49
76297;BME280;65104;52.994;6.552;2024-01-06T01:06:49;100450.81;;;1.37;90.38
76297;BME280;65104;52.994;6.552;2024-01-06T01:09:15;100454.31;;;1.39;91.02
76297;BME280;65104;52.994;6.552;2024-01-06T01:11:42;100456.94;;;1.41;90.48
76297;BME280;65104;52.994;6.552;2024-01-06T01:14:09;100459.59;;;1.42;90.96
76297;BME280;65104;52.994;6.552;2024-01-06T01:16:35;100461.31;;;1.42;90.43
76297;BME280;65104;52.994;6.552;2024-01-06T01:19:02;100471.00;;;1.47;90.30
76297;BME280;65104;52.994;6.552;2024-01-06T01:21:29;100463.03;;;1.41;90.35
76297;BME280;65104;52.994;6.552;2024-01-06T01:23:57;100459.34;;;1.30;90.34
76297;BME280;65104;52.994;6.552;2024-01-06T01:26:23;100465.19;;;1.21;91.18
76297;BME280;65104;52.994;6.552;2024-01-06T01:28:50;100480.16;;;1.30;90.67
76297;BME280;65104;52.994;6.552;2024-01-06T01:31:17;100470.56;;;1.29;91.37
76297;BME280;65104;52.994;6.552;2024-01-06T01:33:44;100473.94;;;1.25;90.99
76297;BME280;65104;52.994;6.552;2024-01-06T01:36:10;100483.44;;;1.23;90.81
76297;BME280;65104;52.994;6.552;2024-01-06T01:38:37;100482.72;;;1.28;90.87
76297;BME280;65104;52.994;6.552;2024-01-06T01:41:05;100490.16;;;1.13;90.57
76297;BME280;65104;52.994;6.552;2024-01-06T01:43:31;100490.22;;;1.16;90.75
76297;BME280;65104;52.994;6.552;2024-01-06T01:45:58;100496.19;;;1.12;90.90
76297;BME280;65104;52.994;6.552;2024-01-06T01:48:25;100488.44;;;1.14;91.29
76297;BME280;65104;52.994;6.552;2024-01-06T01:50:53;100494.50;;;1.14;90.93
76297;BME280;65104;52.994;6.552;2024-01-06T01:53:20;100496.13;;;1.09;90.69
76297;BME280;65104;52.994;6.552;2024-01-06T01:55:49;100499.41;;;1.02;91.28
76297;BME280;65104;52.994;6.552;2024-01-06T01:58:17;100499.66;;;1.11;91.75
76297;BME280;65104;52.994;6.552;2024-01-06T02:00:44;100502.31;;;1.14;90.66
76297;BME280;65104;52.994;6.552;2024-01-06T02:03:12;100505.44;;;0.99;90.40
76297;BME280;65104;52.994;6.552;2024-01-06T02:05:40;100496.63;;;0.94;91.59
76297;BME280;65104;52.994;6.552;2024-01-06T02:08:06;100498.38;;;0.95;91.25
76297;BME280;65104;52.994;6.552;2024-01-06T02:10:33;100507.34;;;1.06;91.46
76297;BME280;65104;52.994;6.552;2024-01-06T02:13:07;100499.66;;;1.13;90.72
76297;BME280;65104;52.994;6.552;2024-01-06T02:15:35;100511.66;;;1.06;90.56
76297;BME280;65104;52.994;6.552;2024-01-06T02:18:03;100510.75;;;1.04;90.25
76297;BME280;65104;52.994;6.552;2024-01-06T02:20:30;100508.16;;;1.05;90.54
76297;BME280;65104;52.994;6.552;2024-01-06T02:22:58;100512.66;;;1.11;90.56
76297;BME280;65104;52.994;6.552;2024-01-06T02:25:26;100517.00;;;1.12;90.25
76297;BME280;65104;52.994;6.552;2024-01-06T02:27:52;100515.16;;;1.08;90.82
76297;BME280;65104;52.994;6.552;2024-01-06T02:30:19;100526.47;;;1.09;90.52
76297;BME280;65104;52.994;6.552;2024-01-06T02:32:46;100524.47;;;0.98;90.46
76297;BME280;65104;52.994;6.552;2024-01-06T02:35:12;100530.09;;;0.80;90.98
76297;BME280;65104;52.994;6.552;2024-01-06T02:37:39;100525.94;;;0.89;91.15
76297;BME280;65104;52.994;6.552;2024-01-06T02:40:08;100530.09;;;0.80;90.74
76297;BME280;65104;52.994;6.552;2024-01-06T02:42:35;100532.75;;;0.82;90.80
76297;BME280;65104;52.994;6.552;2024-01-06T02:45:02;100533.69;;;0.85;91.31
76297;BME280;65104;52.994;6.552;2024-01-06T02:47:29;100542.47;;;0.89;90.87
76297;BME280;65104;52.994;6.552;2024-01-06T02:49:55;100544.59;;;1.05;90.51
76297;BME280;65104;52.994;6.552;2024-01-06T02:52:22;100546.00;;;0.93;90.43
76297;BME280;65104;52.994;6.552;2024-01-06T02:54:49;100552.19;;;0.98;89.97
76297;BME280;65104;52.994;6.552;2024-01-06T02:57:17;100548.69;;;0.96;89.68
76297;BME280;65104;52.994;6.552;2024-01-06T02:59:44;100558.38;;;1.01;90.18
76297;BME280;65104;52.994;6.552;2024-01-06T03:02:11;100558.50;;;1.06;89.69
76297;BME280;65104;52.994;6.552;2024-01-06T03:04:37;100573.81;;;0.95;89.96
76297;BME280;65104;52.994;6.552;2024-01-06T03:07:04;100569.34;;;0.90;89.28
76297;BME280;65104;52.994;6.552;2024-01-06T03:09:31;100576.28;;;0.89;90.19
76297;BME280;65104;52.994;6.552;2024-01-06T03:11:57;100582.59;;;0.99;90.00
76297;BME280;65104;52.994;6.552;2024-01-06T03:14:25;100573.09;;;1.01;89.78
76297;BME280;65104;52.994;6.552;2024-01-06T03:16:52;100573.69;;;0.89;89.63
76297;BME280;65104;52.994;6.552;2024-01-06T03:19:19;100584.28;;;0.97;90.35
76297;BME280;65104;52.994;6.552;2024-01-06T03:21:45;100586.69;;;0.89;89.61
76297;BME280;65104;52.994;6.552;2024-01-06T03:24:12;100583.16;;;0.89;90.18
76297;BME280;65104;52.994;6.552;2024-01-06T03:26:38;100592.81;;;0.93;89.40
76297;BME280;65104;52.994;6.552;2024-01-06T03:29:05;100599.56;;;0.86;89.27
76297;BME280;65104;52.994;6.552;2024-01-06T03:31:33;100595.91;;;0.79;89.27
76297;BME280;65104;52.994;6.552;2024-01-06T03:34:00;100600.31;;;0.80;89.48
76297;BME280;65104;52.994;6.552;2024-01-06T03:36:26;100602.72;;;0.74;89.82
76297;BME280;65104;52.994;6.552;2024-01-06T03:38:53;100594.84;;;0.71;89.54
76297;BME280;65104;52.994;6.552;2024-01-06T03:41:20;100595.03;;;0.79;89.51
76297;BME280;65104;52.994;6.552;2024-01-06T03:43:46;100603.50;;;0.70;89.13
76297;BME280;65104;52.994;6.552;2024-01-06T03:46:13;100600.13;;;0.74;89.48
76297;BME280;65104;52.994;6.552;2024-01-06T03:48:41;100611.38;;;0.73;90.52
76297;BME280;65104;52.994;6.552;2024-01-06T03:51:07;100612.03;;;0.66;89.85
76297;BME280;65104;52.994;6.552;2024-01-06T03:53:35;100623.38;;;0.68;89.92
76297;BME280;65104;52.994;6.552;2024-01-06T03:56:03;100624.31;;;0.72;90.37
76297;BME280;65104;52.994;6.552;2024-01-06T03:58:30;100632.75;;;0.63;90.20
76297;BME280;65104;52.994;6.552;2024-01-06T04:00:56;100636.09;;;0.59;90.50
76297;BME280;65104;52.994;6.552;2024-01-06T04:03:23;100638.72;;;0.59;90.23
76297;BME280;65104;52.994;6.552;2024-01-06T04:05:51;100651.78;;;0.62;90.79
76297;BME280;65104;52.994;6.552;2024-01-06T04:08:18;100649.38;;;0.68;90.24
76297;BME280;65104;52.994;6.552;2024-01-06T04:10:45;100651.97;;;0.68;90.13
76297;BME280;65104;52.994;6.552;2024-01-06T04:13:11;100662.28;;;0.65;90.89
76297;BME280;65104;52.994;6.552;2024-01-06T04:15:38;100665.78;;;0.67;90.44
76297;BME280;65104;52.994;6.552;2024-01-06T04:18:05;100665.72;;;0.64;89.84
76297;BME280;65104;52.994;6.552;2024-01-06T04:20:32;100669.19;;;0.64;90.07
76297;BME280;65104;52.994;6.552;2024-01-06T04:23:00;100671.00;;;0.67;90.20
76297;BME280;65104;52.994;6.552;2024-01-06T04:25:26;100676.16;;;0.66;90.30
76297;BME280;65104;52.994;6.552;2024-01-06T04:27:52;100681.88;;;0.54;90.11
76297;BME280;65104;52.994;6.552;2024-01-06T04:30:19;100683.41;;;0.47;90.82
76297;BME280;65104;52.994;6.552;2024-01-06T04:32:46;100690.56;;;0.54;90.76
76297;BME280;65104;52.994;6.552;2024-01-06T04:35:13;100688.84;;;0.55;90.29
76297;BME280;65104;52.994;6.552;2024-01-06T04:37:40;100695.47;;;0.45;90.82
76297;BME280;65104;52.994;6.552;2024-01-06T04:40:09;100689.72;;;0.55;91.19
76297;BME280;65104;52.994;6.552;2024-01-06T04:42:36;100693.94;;;0.52;91.12
76297;BME280;65104;52.994;6.552;2024-01-06T04:45:04;100697.44;;;0.52;90.88
76297;BME280;65104;52.994;6.552;2024-01-06T04:47:30;100696.41;;;0.47;90.38
76297;BME280;65104;52.994;6.552;2024-01-06T04:49:57;100700.81;;;0.50;90.81
76297;BME280;65104;52.994;6.552;2024-01-06T04:52:23;100699.88;;;0.48;90.60
76297;BME280;65104;52.994;6.552;2024-01-06T04:54:50;100698.50;;;0.59;90.21
76297;BME280;65104;52.994;6.552;2024-01-06T04:57:19;100706.16;;;0.54;89.82
76297;BME280;65104;52.994;6.552;2024-01-06T04:59:46;100707.16;;;0.59;90.00
76297;BME280;65104;52.994;6.552;2024-01-06T05:02:12;100705.19;;;0.51;89.03
76297;BME280;65104;52.994;6.552;2024-01-06T05:04:39;100708.69;;;0.53;89.50
76297;BME280;65104;52.994;6.552;2024-01-06T05:07:06;100713.88;;;0.51;89.05
76297;BME280;65104;52.994;6.552;2024-01-06T05:09:32;100716.50;;;0.53;89.19
76297;BME280;65104;52.994;6.552;2024-01-06T05:11:59;100718.00;;;0.45;90.01
76297;BME280;65104;52.994;6.552;2024-01-06T05:14:27;100725.88;;;0.48;89.78
76297;BME280;65104;52.994;6.552;2024-01-06T05:16:53;100731.94;;;0.47;90.10
76297;BME280;65104;52.994;6.552;2024-01-06T05:19:20;100730.75;;;0.37;89.36
76297;BME280;65104;52.994;6.552;2024-01-06T05:21:47;100738.88;;;0.48;89.55
76297;BME280;65104;52.994;6.552;2024-01-06T05:24:14;100726.72;;;0.47;88.87
76297;BME280;65104;52.994;6.552;2024-01-06T05:26:41;100741.47;;;0.48;88.96
76297;BME280;65104;52.994;6.552;2024-01-06T05:29:07;100742.25;;;0.44;88.69
76297;BME280;65104;52.994;6.552;2024-01-06T05:31:35;100744.88;;;0.45;88.70
76297;BME280;65104;52.994;6.552;2024-01-06T05:34:02;100746.59;;;0.45;88.89
76297;BME280;65104;52.994;6.552;2024-01-06T05:36:30;100750.19;;;0.48;88.90
76297;BME280;65104;52.994;6.552;2024-01-06T05:38:56;100757.19;;;0.51;88.78
76297;BME280;65104;52.994;6.552;2024-01-06T05:41:24;100759.97;;;0.57;89.17
76297;BME280;65104;52.994;6.552;2024-01-06T05:43:51;100768.41;;;0.50;88.51
76297;BME280;65104;52.994;6.552;2024-01-06T05:46:21;100768.31;;;0.47;88.87
76297;BME280;65104;52.994;6.552;2024-01-06T05:48:49;100775.09;;;0.41;88.65
76297;BME280;65104;52.994;6.552;2024-01-06T05:51:16;100781.31;;;0.47;88.86
76297;BME280;65104;52.994;6.552;2024-01-06T05:53:42;100791.16;;;0.57;89.43
76297;BME280;65104;52.994;6.552;2024-01-06T05:56:09;100790.97;;;0.51;88.40
76297;BME280;65104;52.994;6.552;2024-01-06T05:58:36;100803.69;;;0.41;88.19
76297;BME280;65104;52.994;6.552;2024-01-06T06:01:03;100800.38;;;0.47;88.41
76297;BME280;65104;52.994;6.552;2024-01-06T06:03:30;100808.53;;;0.58;88.03
76297;BME280;65104;52.994;6.552;2024-01-06T06:05:58;100809.84;;;0.45;88.25
76297;BME280;65104;52.994;6.552;2024-01-06T06:08:25;100807.38;;;0.48;88.77
76297;BME280;65104;52.994;6.552;2024-01-06T06:10:51;100810.00;;;0.50;88.68
76297;BME280;65104;52.994;6.552;2024-01-06T06:13:27;100814.59;;;0.58;89.17
76297;BME280;65104;52.994;6.552;2024-01-06T06:15:54;100823.94;;;0.52;88.16
76297;BME280;65104;52.994;6.552;2024-01-06T06:18:21;100836.84;;;0.49;88.31
76297;BME280;65104;52.994;6.552;2024-01-06T06:20:47;100839.59;;;0.53;88.63
76297;BME280;65104;52.994;6.552;2024-01-06T06:23:15;100841.56;;;0.62;88.82
76297;BME280;65104;52.994;6.552;2024-01-06T06:25:42;100847.53;;;0.58;88.09
76297;BME280;65104;52.994;6.552;2024-01-06T06:28:09;100852.91;;;0.64;88.95
76297;BME280;65104;52.994;6.552;2024-01-06T06:30:35;100854.81;;;0.70;88.38
76297;BME280;65104;52.994;6.552;2024-01-06T06:33:02;100851.97;;;0.62;88.14
76297;BME280;65104;52.994;6.552;2024-01-06T06:35:29;100864.31;;;0.68;88.85
76297;BME280;65104;52.994;6.552;2024-01-06T06:37:55;100866.00;;;0.67;88.35
76297;BME280;65104;52.994;6.552;2024-01-06T06:40:23;100870.38;;;0.68;88.76
76297;BME280;65104;52.994;6.552;2024-01-06T06:42:50;100879.69;;;0.61;88.19
76297;BME280;65104;52.994;6.552;2024-01-06T06:45:16;100873.94;;;0.72;88.21
76297;BME280;65104;52.994;6.552;2024-01-06T06:47:46;100886.56;;;0.59;87.26
76297;BME280;65104;52.994;6.552;2024-01-06T06:50:12;100884.97;;;0.64;88.29
76297;BME280;65104;52.994;6.552;2024-01-06T06:52:39;100891.84;;;0.62;87.75
76297;BME280;65104;52.994;6.552;2024-01-06T06:55:07;100894.34;;;0.59;87.50
76297;BME280;65104;52.994;6.552;2024-01-06T06:57:35;100901.38;;;0.62;87.82
76297;BME280;65104;52.994;6.552;2024-01-06T07:00:02;100905.13;;;0.70;87.47
76297;BME280;65104;52.994;6.552;2024-01-06T07:02:29;100913.72;;;0.68;87.24
76297;BME280;65104;52.994;6.552;2024-01-06T07:04:55;100915.25;;;0.62;87.58
76297;BME280;65104;52.994;6.552;2024-01-06T07:07:22;100918.59;;;0.58;87.26
76297;BME280;65104;52.994;6.552;2024-01-06T07:09:48;100927.63;;;0.70;87.91
76297;BME280;65104;52.994;6.552;2024-01-06T07:12:15;100933.88;;;0.75;88.16
76297;BME280;65104;52.994;6.552;2024-01-06T07:14:43;100932.94;;;0.73;87.75
76297;BME280;65104;52.994;6.552;2024-01-06T07:17:10;100942.56;;;0.75;87.83
76297;BME280;65104;52.994;6.552;2024-01-06T07:19:36;100944.06;;;0.69;88.39
76297;BME280;65104;52.994;6.552;2024-01-06T07:22:03;100952.44;;;0.60;88.86
76297;BME280;65104;52.994;6.552;2024-01-06T07:24:30;100954.13;;;0.58;89.03
76297;BME280;65104;52.994;6.552;2024-01-06T07:26:57;100949.63;;;0.54;88.66
76297;BME280;65104;52.994;6.552;2024-01-06T07:29:23;100960.97;;;0.56;88.44
76297;BME280;65104;52.994;6.552;2024-01-06T07:31:51;100958.41;;;0.57;88.89
76297;BME280;65104;52.994;6.552;2024-01-06T07:34:18;100970.84;;;0.66;89.15
76297;BME280;65104;52.994;6.552;2024-01-06T07:36:47;100969.72;;;0.58;87.95
76297;BME280;65104;52.994;6.552;2024-01-06T07:39:14;100978.56;;;0.63;89.02
76297;BME280;65104;52.994;6.552;2024-01-06T07:41:40;100977.78;;;0.66;88.46
76297;BME280;65104;52.994;6.552;2024-01-06T07:44:07;100982.19;;;0.68;89.38
76297;BME280;65104;52.994;6.552;2024-01-06T07:46:34;100979.63;;;0.70;89.17
76297;BME280;65104;52.994;6.552;2024-01-06T07:49:03;100977.94;;;0.70;88.56
76297;BME280;65104;52.994;6.552;2024-01-06T07:51:30;100983.06;;;0.69;88.54
76297;BME280;65104;52.994;6.552;2024-01-06T07:53:57;100996.16;;;0.72;88.64
76297;BME280;65104;52.994;6.552;2024-01-06T07:56:23;101001.63;;;0.79;88.88
76297;BME280;65104;52.994;6.552;2024-01-06T07:58:50;100997.34;;;0.81;88.46
76297;BME280;65104;52.994;6.552;2024-01-06T08:01:17;100992.69;;;0.71;88.69
76297;BME280;65104;52.994;6.552;2024-01-06T08:03:44;100992.06;;;0.78;88.98
76297;BME280;65104;52.994;6.552;2024-01-06T08:06:12;100991.38;;;0.84;88.45
76297;BME280;65104;52.994;6.552;2024-01-06T08:08:39;100998.13;;;0.79;87.40
76297;BME280;65104;52.994;6.552;2024-01-06T08:11:05;100999.81;;;0.77;88.05
76297;BME280;65104;52.994;6.552;2024-01-06T08:13:32;101008.50;;;0.77;87.39
76297;BME280;65104;52.994;6.552;2024-01-06T08:15:58;101012.00;;;0.78;87.78
76297;BME280;65104;52.994;6.552;2024-01-06T08:18:25;101012.41;;;0.90;87.76
76297;BME280;65104;52.994;6.552;2024-01-06T08:20:53;101019.97;;;0.84;87.31
76297;BME280;65104;52.994;6.552;2024-01-06T08:23:21;101022.59;;;0.84;87.46
76297;BME280;65104;52.994;6.552;2024-01-06T08:25:48;101027.91;;;0.87;87.49
76297;BME280;65104;52.994;6.552;2024-01-06T08:28:14;101032.50;;;0.94;87.22
76297;BME280;65104;52.994;6.552;2024-01-06T08:30:41;101036.69;;;0.91;86.86
76297;BME280;65104;52.994;6.552;2024-01-06T08:33:08;101043.69;;;0.92;86.45
76297;BME280;65104;52.994;6.552;2024-01-06T08:35:35;101041.94;;;0.92;86.56
76297;BME280;65104;52.994;6.552;2024-01-06T08:38:05;101050.63;;;0.93;86.75
76297;BME280;65104;52.994;6.552;2024-01-06T08:40:33;101049.69;;;0.91;86.65
76297;BME280;65104;52.994;6.552;2024-01-06T08:43:00;101054.28;;;0.98;86.83
76297;BME280;65104;52.994;6.552;2024-01-06T08:45:27;101060.09;;;0.91;85.90
76297;BME280;65104;52.994;6.552;2024-01-06T08:47:53;101059.56;;;1.01;86.40
76297;BME280;65104;52.994;6.552;2024-01-06T08:50:20;101062.28;;;1.04;87.02
76297;BME280;65104;52.994;6.552;2024-01-06T08:52:47;101064.78;;;1.01;85.90
76297;BME280;65104;52.994;6.552;2024-01-06T08:55:13;101062.28;;;1.04;86.76
76297;BME280;65104;52.994;6.552;2024-01-06T08:57:43;101063.06;;;1.01;86.02
76297;BME280;65104;52.994;6.552;2024-01-06T09:00:10;101068.91;;;0.94;86.11
76297;BME280;65104;52.994;6.552;2024-01-06T09:02:37;101074.13;;;0.96;86.35
76297;BME280;65104;52.994;6.552;2024-01-06T09:05:04;101083.91;;;1.01;85.71
76297;BME280;65104;52.994;6.552;2024-01-06T09:07:31;101084.53;;;0.96;86.77
76297;BME280;65104;52.994;6.552;2024-01-06T09:09:57;101091.41;;;0.94;85.65
76297;BME280;65104;52.994;6.552;2024-01-06T09:12:24;101095.56;;;0.89;86.31
76297;BME280;65104;52.994;6.552;2024-01-06T09:14:52;101096.59;;;0.92;85.78
76297;BME280;65104;52.994;6.552;2024-01-06T09:17:19;101098.50;;;0.98;85.63
76297;BME280;65104;52.994;6.552;2024-01-06T09:19:45;101101.88;;;0.95;85.94
76297;BME280;65104;52.994;6.552;2024-01-06T09:22:13;101105.66;;;1.03;85.49
76297;BME280;65104;52.994;6.552;2024-01-06T09:24:40;101111.56;;;0.99;85.71
76297;BME280;65104;52.994;6.552;2024-01-06T09:27:06;101110.72;;;1.00;85.50
76297;BME280;65104;52.994;6.552;2024-01-06T09:29:33;101110.06;;;1.06;85.93
76297;BME280;65104;52.994;6.552;2024-01-06T09:32:01;101121.28;;;1.05;84.77
76297;BME280;65104;52.994;6.552;2024-01-06T09:34:28;101116.16;;;1.06;85.71
76297;BME280;65104;52.994;6.552;2024-01-06T09:36:54;101125.72;;;1.08;85.08
76297;BME280;65104;52.994;6.552;2024-01-06T09:39:21;101122.50;;;1.15;85.65
76297;BME280;65104;52.994;6.552;2024-01-06T09:41:48;101123.28;;;1.12;84.70
76297;BME280;65104;52.994;6.552;2024-01-06T09:44:14;101119.06;;;1.16;85.16
76297;BME280;65104;52.994;6.552;2024-01-06T09:46:42;101129.59;;;1.19;84.50
76297;BME280;65104;52.994;6.552;2024-01-06T09:49:10;101134.06;;;1.23;85.36
76297;BME280;65104;52.994;6.552;2024-01-06T09:51:39;101139.94;;;1.17;84.71
76297;BME280;65104;52.994;6.552;2024-01-06T09:54:09;101149.47;;;1.17;84.83
76297;BME280;65104;52.994;6.552;2024-01-06T09:56:36;101148.56;;;1.16;84.88
76297;BME280;65104;52.994;6.552;2024-01-06T09:59:02;101151.44;;;1.24;84.95
76297;BME280;65104;52.994;6.552;2024-01-06T10:01:29;101158.31;;;1.22;84.71
76297;BME280;65104;52.994;6.552;2024-01-06T10:03:56;101154.56;;;1.14;83.86
76297;BME280;65104;52.994;6.552;2024-01-06T10:06:24;101158.88;;;1.13;83.86
76297;BME280;65104;52.994;6.552;2024-01-06T10:08:51;101155.59;;;1.19;83.87
76297;BME280;65104;52.994;6.552;2024-01-06T10:11:18;101160.03;;;1.21;84.17
76297;BME280;65104;52.994;6.552;2024-01-06T10:13:48;101156.47;;;1.19;84.30
76297;BME280;65104;52.994;6.552;2024-01-06T10:16:15;101164.19;;;1.16;83.95
76297;BME280;65104;52.994;6.552;2024-01-06T10:18:41;101168.53;;;1.16;83.81
76297;BME280;65104;52.994;6.552;2024-01-06T10:21:10;101166.72;;;1.15;84.11
76297;BME280;65104;52.994;6.552;2024-01-06T10:23:38;101157.16;;;1.14;83.58
76297;BME280;65104;52.994;6.552;2024-01-06T10:26:05;101171.16;;;1.17;83.64
76297;BME280;65104;52.994;6.552;2024-01-06T10:28:31;101178.31;;;1.23;84.18
76297;BME280;65104;52.994;6.552;2024-01-06T10:30:58;101172.88;;;1.17;83.92
76297;BME280;65104;52.994;6.552;2024-01-06T10:33:26;101178.81;;;1.13;83.66
76297;BME280;65104;52.994;6.552;2024-01-06T10:35:53;101179.81;;;1.16;83.86
76297;BME280;65104;52.994;6.552;2024-01-06T10:38:20;101186.00;;;1.20;84.29
76297;BME280;65104;52.994;6.552;2024-01-06T10:40:58;101186.91;;;1.20;84.07
76297;BME280;65104;52.994;6.552;2024-01-06T10:43:26;101185.00;;;1.16;84.43
76297;BME280;65104;52.994;6.552;2024-01-06T10:45:55;101184.16;;;1.17;84.55
76297;BME280;65104;52.994;6.552;2024-01-06T10:48:24;101189.38;;;1.17;84.49
76297;BME280;65104;52.994;6.552;2024-01-06T10:50:51;101188.34;;;1.12;84.12
76297;BME280;65104;52.994;6.552;2024-01-06T10:53:18;101187.56;;;1.15;83.86
76297;BME280;65104;52.994;6.552;2024-01-06T10:55:49;101192.84;;;1.18;84.71
76297;BME280;65104;52.994;6.552;2024-01-06T10:58:18;101191.03;;;1.15;84.73
76297;BME280;65104;52.994;6.552;2024-01-06T11:00:45;101189.53;;;1.22;84.31
76297;BME280;65104;52.994;6.552;2024-01-06T11:03:13;101200.00;;;1.23;83.53
76297;BME280;65104;52.994;6.552;2024-01-06T11:05:40;101195.19;;;1.10;82.36
76297;BME280;65104;52.994;6.552;2024-01-06T11:08:10;101201.19;;;1.08;83.27
76297;BME280;65104;52.994;6.552;2024-01-06T11:10:37;101198.75;;;1.12;83.90
76297;BME280;65104;52.994;6.552;2024-01-06T11:13:11;101206.53;;;1.12;83.89
76297;BME280;65104;52.994;6.552;2024-01-06T11:15:44;101205.50;;;1.07;83.51
76297;BME280;65104;52.994;6.552;2024-01-06T11:18:32;101202.63;;;1.23;84.81
76297;BME280;65104;52.994;6.552;2024-01-06T11:21:15;101204.19;;;1.18;84.36
76297;BME280;65104;52.994;6.552;2024-01-06T11:23:43;101206.66;;;1.15;84.48
76297;BME280;65104;52.994;6.552;2024-01-06T11:26:10;101206.72;;;1.17;84.86
76297;BME280;65104;52.994;6.552;2024-01-06T11:28:43;101216.59;;;1.27;83.70
76297;BME280;65104;52.994;6.552;2024-01-06T11:31:12;101214.78;;;1.24;83.36
76297;BME280;65104;52.994;6.552;2024-01-06T11:33:42;101214.69;;;1.21;83.47
76297;BME280;65104;52.994;6.552;2024-01-06T11:36:08;101213.53;;;1.13;82.74
76297;BME280;65104;52.994;6.552;2024-01-06T11:38:38;101214.44;;;1.15;83.41
76297;BME280;65104;52.994;6.552;2024-01-06T11:41:06;101219.03;;;1.22;82.99
76297;BME280;65104;52.994;6.552;2024-01-06T11:43:34;101219.66;;;1.15;82.91
76297;BME280;65104;52.994;6.552;2024-01-06T11:46:01;101221.66;;;1.22;83.02
76297;BME280;65104;52.994;6.552;2024-01-06T11:48:31;101222.94;;;1.34;83.82
76297;BME280;65104;52.994;6.552;2024-01-06T11:50:59;101219.47;;;1.35;83.58
76297;BME280;65104;52.994;6.552;2024-01-06T11:53:26;101217.72;;;1.34;83.24
76297;BME280;65104;52.994;6.552;2024-01-06T11:55:53;101221.19;;;1.34;82.45
76297;BME280;65104;52.994;6.552;2024-01-06T11:58:19;101222.06;;;1.35;82.91
76297;BME280;65104;52.994;6.552;2024-01-06T12:00:55;101226.41;;;1.34;82.87
76297;BME280;65104;52.994;6.552;2024-01-06T12:03:21;101217.66;;;1.32;82.78
76297;BME280;65104;52.994;6.552;2024-01-06T12:06:00;101223.25;;;1.43;82.96
76297;BME280;65104;52.994;6.552;2024-01-06T12:08:28;101221.59;;;1.45;82.66
76297;BME280;65104;52.994;6.552;2024-01-06T12:11:02;101229.41;;;1.45;82.07
76297;BME280;65104;52.994;6.552;2024-01-06T12:13:29;101222.88;;;1.58;82.08
76297;BME280;65104;52.994;6.552;2024-01-06T12:15:55;101226.22;;;1.54;81.46
76297;BME280;65104;52.994;6.552;2024-01-06T12:18:22;101228.25;;;1.62;81.42
76297;BME280;65104;52.994;6.552;2024-01-06T12:20:49;101228.66;;;1.49;81.22
76297;BME280;65104;52.994;6.552;2024-01-06T12:23:25;101230.53;;;1.53;82.08
76297;BME280;65104;52.994;6.552;2024-01-06T12:25:53;101233.84;;;1.49;81.95
76297;BME280;65104;52.994;6.552;2024-01-06T12:28:19;101230.44;;;1.50;82.27
76297;BME280;65104;52.994;6.552;2024-01-06T12:30:46;101232.97;;;1.48;82.96
76297;BME280;65104;52.994;6.552;2024-01-06T12:33:13;101228.34;;;1.40;82.23
76297;BME280;65104;52.994;6.552;2024-01-06T12:35:40;101226.81;;;1.21;83.06
76297;BME280;65104;52.994;6.552;2024-01-06T12:38:08;101235.50;;;1.21;83.13
76297;BME280;65104;52.994;6.552;2024-01-06T12:40:37;101246.19;;;1.29;82.54
76297;BME280;65104;52.994;6.552;2024-01-06T12:43:04;101247.81;;;1.25;83.60
76297;BME280;65104;52.994;6.552;2024-01-06T12:45:31;101244.88;;;1.16;83.16
76297;BME280;65104;52.994;6.552;2024-01-06T12:47:57;101252.88;;;1.22;82.77
76297;BME280;65104;52.994;6.552;2024-01-06T12:50:24;101252.50;;;1.12;82.69
76297;BME280;65104;52.994;6.552;2024-01-06T12:52:51;101259.53;;;1.14;82.55
76297;BME280;65104;52.994;6.552;2024-01-06T12:55:17;101262.91;;;1.12;82.89
76297;BME280;65104;52.994;6.552;2024-01-06T12:57:45;101267.94;;;1.07;82.82
76297;BME280;65104;52.994;6.552;2024-01-06T13:00:13;101252.94;;;1.00;81.85